Time;durP1;ratioP1;P1;durP2;ratioP2;P2;SDS_P1;SDS_P2;PMS_P1;PMS_P2;Temp;Humidity;BMP_temperature;BMP_pressure;BME280_temperature;BME280_humidity;BME280_pressure;Samples;Min_cycle;Max_cycle;Signal;HPM_P1;HPM_P2
2022/04/25 00:00:37;;;;;;;93.72;48.10;;;8.30;94.90;;;;;;5012074;28;20025;-75
2022/04/25 00:03:03;;;;;;;88.32;48.67;;;;;;;;;;5010810;28;20022;-74
2022/04/25 00:05:29;;;;;;;75.70;45.25;;;;;;;;;;5011974;28;20449;-75
2022/04/25 00:07:55;;;;;;;76.10;46.63;;;;;;;;;;5010896;28;20028;-74
2022/04/25 00:10:21;;;;;;;75.47;44.40;;;;;;;;;;5010433;28;20534;-74
2022/04/25 00:12:47;;;;;;;83.32;46.22;;;;;;;;;;5011641;28;20018;-72
2022/04/25 00:15:13;;;;;;;83.57;45.25;;;;;;;;;;5011916;28;20021;-75
2022/04/25 00:17:39;;;;;;;87.32;46.80;;;;;;;;;;5009634;28;20109;-73
2022/04/25 00:20:08;;;;;;;92.07;47.05;;;;;;;;;;5010370;28;20076;-73
2022/04/25 00:22:34;;;;;;;76.28;45.83;;;;;;;;;;5011576;28;20026;-73
2022/04/25 00:25:02;;;;;;;100.28;50.95;;;;;;;;;;5010374;28;20030;-75
2022/04/25 00:27:29;;;;;;;87.70;47.35;;;;;;;;;;5010990;28;20049;-72
2022/04/25 00:29:55;;;;;;;74.72;42.83;;;;;;;;;;5011663;28;20045;-72
2022/04/25 00:32:21;;;;;;;72.72;43.78;;;;;;;;;;5011452;28;20829;-72
2022/04/25 00:34:47;;;;;;;82.15;45.47;;;;;;;;;;5011564;28;20033;-70
2022/04/25 00:37:13;;;;;;;73.13;41.20;;;;;;;;;;5009397;28;20022;-72
2022/04/25 00:39:39;;;;;;;78.07;43.95;;;;;;;;;;5011532;28;20076;-72
2022/04/25 00:42:05;;;;;;;66.90;40.85;;;;;;;;;;5012997;28;20026;-68
2022/04/25 00:44:32;;;;;;;66.68;39.95;;;;;;;;;;5015665;28;20029;-72
2022/04/25 00:47:00;;;;;;;69.82;41.13;;;;;;;;;;5032841;22;20883;-76
2022/04/25 00:49:25;;;;;;;64.80;39.28;;;;;;;;;;5015580;28;20022;-76
2022/04/25 00:51:51;;;;;;;65.90;38.20;;;;;;;;;;5004765;28;20061;-76
2022/04/25 00:54:18;;;;;;;70.93;38.90;;;;;;;;;;5008807;28;20022;-76
2022/04/25 00:56:46;;;;;;;66.18;38.83;;;;;;;;;;4999129;28;20034;-75
2022/04/25 00:59:12;;;;;;;58.58;38.55;;;;;;;;;;5008858;28;20502;-73
2022/04/25 01:01:38;;;;;;;69.25;38.75;;;;;;;;;;5005091;28;20022;-74
2022/04/25 01:04:04;;;;;;;72.32;40.97;;;;;;;;;;5004955;28;20527;-74
2022/04/25 01:06:30;;;;;;;69.03;39.53;;;;;;;;;;4997923;28;20022;-74
2022/04/25 01:08:56;;;;;;;67.22;40.63;;;;;;;;;;5012369;28;20022;-74
2022/04/25 01:11:22;;;;;;;63.40;37.80;;;;;;;;;;5011315;28;20057;-74
2022/04/25 01:13:49;;;;;;;66.07;40.28;;;;;;;;;;5005172;28;20105;-75
2022/04/25 01:16:15;;;;;;;72.22;42.22;;;;;;;;;;5009944;28;20022;-74
2022/04/25 01:18:41;;;;;;;65.25;40.13;;;;;;;;;;4998557;28;20093;-73
2022/04/25 01:21:10;;;;;;;69.22;41.22;;;;;;;;;;5011053;28;20030;-74
2022/04/25 01:29:06;;;;;;;67.40;40.80;;;;;;;;;;4999693;28;20072;-74
2022/04/25 01:31:32;;;;;;;69.43;40.00;;;;;;;;;;5006771;28;20026;-73
2022/04/25 01:33:58;;;;;;;60.85;38.05;;;;;;;;;;5006815;28;20079;-74
2022/04/25 01:36:25;;;;;;;66.97;39.45;;;;;;;;;;4999434;28;20118;-74
2022/04/25 01:38:54;;;;;;;65.60;39.72;;;;;;;;;;5010645;28;20053;-74
2022/04/25 01:41:20;;;;;;;62.78;37.40;;;;;;;;;;5001700;28;20083;-74
2022/04/25 01:43:47;;;;;;;64.20;38.40;;;;;;;;;;5004358;28;20022;-74
2022/04/25 01:46:13;;;;;;;62.38;38.08;;;;;;;;;;5007349;28;20109;-74
2022/04/25 01:48:39;;;;;;;56.25;36.88;;;;;;;;;;5012434;28;20030;-74
2022/04/25 01:51:05;;;;;;;64.95;38.13;;;;;;;;;;4999302;28;20024;-74
2022/04/25 01:53:31;;;;;;;61.10;37.50;;;;;;;;;;5003927;28;20072;-74
2022/04/25 01:55:57;;;;;;;62.67;38.45;;;;;;;;;;5006416;28;20494;-74
2022/04/25 01:58:24;;;;;;;61.15;36.97;;;;;;;;;;4998518;28;20030;-75
2022/04/25 02:00:50;;;;;;;61.78;37.50;;;;;;;;;;5009524;28;20026;-75
2022/04/25 02:03:16;;;;;;;60.95;37.30;;;;;;;;;;5000916;28;20022;-75
2022/04/25 02:05:42;;;;;;;55.53;34.33;;;;;;;;;;5004410;28;20026;-75
2022/04/25 02:08:08;;;;;;;61.75;36.38;;;;;;;;;;5006842;28;20060;-75
2022/04/25 02:10:34;;;;;;;53.38;35.90;;;;;;;;;;4997987;28;20049;-75
2022/04/25 02:13:01;;;;;;;53.83;35.92;;;;;;;;;;5011604;28;20068;-73
2022/04/25 02:15:27;;;;;;;61.08;36.75;;;;;;;;;;5002455;28;20431;-73
2022/04/25 02:17:52;;;;;;;60.60;37.10;;;;;;;;;;5002140;28;20239;-74
2022/04/25 02:20:18;;;;;;;63.95;37.65;;;;;;;;;;5008536;28;20168;-73
2022/04/25 02:22:44;;;;;;;68.50;39.88;;;;;;;;;;4997505;28;20035;-73
2022/04/25 02:25:11;;;;;;;64.43;38.35;;;;;;;;;;5007097;28;20030;-74
2022/04/25 02:27:36;;;;;;;49.55;35.20;;;;;;;;;;5001533;28;20176;-75
2022/04/25 02:30:04;;;;;;;55.53;35.95;;;;;;;;;;5001253;28;20218;-74
2022/04/25 02:32:30;;;;;;;55.25;36.72;;;;;;;;;;5010105;28;20077;-74
2022/04/25 02:34:56;;;;;;;51.55;35.40;;;;;;;;;;4997757;28;20088;-75
2022/04/25 02:37:22;;;;;;;51.25;32.90;;;;;;;;;;5005940;28;20046;-73
2022/04/25 02:39:48;;;;;;;46.55;32.97;;;;;;;;;;5002926;28;20037;-74
2022/04/25 02:42:14;;;;;;;49.72;32.33;;;;;;;;;;4999483;28;20026;-76
2022/04/25 02:44:40;;;;;;;51.53;34.10;;;;;;;;;;5009964;28;20527;-76
2022/04/25 02:47:06;;;;;;;54.13;34.05;;;;;;;;;;5007156;28;20037;-72
2022/04/25 02:49:32;;;;;;;57.95;36.38;;;;;;;;;;5004974;28;20492;-73
2022/04/25 02:51:58;;;;;;;64.63;38.42;;;;;;;;;;5005200;28;20072;-73
2022/04/25 02:54:24;;;;;;;62.75;36.88;;;;;;;;;;4998004;28;20045;-74
2022/04/25 02:56:50;;;;;;;62.80;36.67;;;;;;;;;;5009780;28;20420;-73
2022/04/25 02:59:16;;;;;;;56.67;37.70;;;;;;;;;;4997558;28;20018;-74
2022/04/25 03:01:42;;;;;;;55.42;37.03;;;;;;;;;;5003478;28;20026;-74
2022/04/25 03:04:09;;;;;;;52.10;33.60;;;;;;;;;;5006109;28;20061;-75
2022/04/25 03:06:35;;;;;;;52.38;34.25;;;;;;;;;;4996821;28;20029;-75
2022/04/25 03:09:01;;;;;;;54.28;36.45;;;;;;;;;;5004820;28;20085;-75
2022/04/25 03:11:27;;;;;;;57.17;36.40;;;;;;;;;;5012915;28;20028;-75
2022/04/25 03:13:53;;;;;;;59.15;38.50;;;;;;;;;;5000574;28;20117;-75
2022/04/25 03:16:19;;;;;;;59.85;38.45;;;;;;;;;;5006100;28;20034;-74
2022/04/25 03:18:45;;;;;;;60.10;39.17;;;;;;;;;;5008499;28;20061;-75
2022/04/25 03:21:11;;;;;;;68.03;40.65;;;;;;;;;;5007944;28;20480;-74
2022/04/25 03:23:38;;;;;;;64.57;39.60;;;;;;;;;;5003012;28;20042;-74
2022/04/25 03:26:05;;;;;;;65.57;40.33;;;;;;;;;;5000763;28;20400;-75
2022/04/25 03:28:30;;;;;;;65.55;39.45;;;;;;;;;;5008455;28;20022;-75
2022/04/25 03:30:56;;;;;;;56.85;37.58;;;;;;;;;;5012752;28;20025;-75
2022/04/25 03:33:22;;;;;;;65.78;39.58;;;;;;;;;;5005570;28;20022;-74
2022/04/25 03:35:48;;;;;;;58.47;37.47;;;;;;;;;;5003471;28;20084;-76
2022/04/25 03:38:17;;;;;;;67.95;38.58;;;;;;;;;;4998421;28;20022;-76
2022/04/25 03:40:43;;;;;;;69.13;39.25;;;;;;;;;;5009542;28;20721;-74
2022/04/25 03:43:09;;;;;;;61.85;38.75;;;;;;;;;;4998466;28;20104;-75
2022/04/25 03:45:36;;;;;;;64.35;37.72;;;;;;;;;;5005771;28;20056;-75
2022/04/25 03:48:02;;;;;;;74.47;39.92;;;;;;;;;;5011625;28;20057;-75
2022/04/25 03:50:28;;;;;;;51.78;36.80;;;;;;;;;;4996535;28;20097;-74
2022/04/25 03:52:54;;;;;;;57.55;38.10;;;;;;;;;;5009174;28;20094;-75
2022/04/25 03:58:05;;;;;;;61.03;37.95;;;;;;;;;;4999288;28;20080;-74
2022/04/25 04:00:32;;;;;;;64.20;38.25;;;;;;;;;;5008684;28;20029;-74
2022/04/25 04:02:58;;;;;;;57.78;36.72;;;;;;;;;;4994626;28;20255;-73
2022/04/25 04:05:25;;;;;;;59.97;36.75;;;;;;;;;;5012090;28;20506;-72
2022/04/25 04:07:51;;;;;;;77.18;41.17;;;;;;;;;;5000461;28;20034;-72
2022/04/25 04:10:18;;;;;;;76.80;42.50;;;;;;;;;;5006709;28;20033;-73
2022/04/25 04:12:48;;;;;;;73.32;41.47;;;;;;;;;;4995559;28;20030;-73
2022/04/25 04:15:14;;;;;;;66.70;39.05;;;;;;;;;;5006138;28;20176;-73
2022/04/25 04:17:40;;;;;;;83.75;43.95;;;;;;;;;;5000056;28;20113;-73
2022/04/25 04:20:08;;;;;;;82.72;44.25;;;;;;;;;;4998703;28;20057;-73
2022/04/25 04:22:34;;;;;;;83.57;43.47;;;;;;;;;;5008212;28;20022;-72
2022/04/25 04:25:01;;;;;;;77.97;43.40;;;;;;;;;;4995665;28;20029;-73
2022/04/25 04:27:31;;;;;;;74.90;39.70;;;;;;;;;;5003370;28;20077;-73
2022/04/25 04:29:57;;;;;;;90.13;42.88;;;;;;;;;;5003496;28;20026;-72
2022/04/25 04:32:26;;;;;;;77.68;41.10;;;;;;;;;;4996581;28;20104;-73
2022/04/25 04:34:51;;;;;;;74.35;40.58;;;;;;;;;;5008005;28;20533;-73
2022/04/25 04:37:17;;;;;;;60.05;37.58;;;;;;;;;;4997394;28;20098;-72
2022/04/25 04:39:43;;;;;;;68.43;38.20;;;;;;;;;;5001843;28;20487;-73
2022/04/25 04:42:09;;;;;;;62.20;35.60;;;;;;;;;;5004027;28;20487;-73
2022/04/25 04:44:36;;;;;;;49.75;32.83;;;;;;;;;;4995478;28;20065;-74
2022/04/25 04:47:02;;;;;;;48.75;31.30;;;;;;;;;;5010753;28;20030;-74
2022/04/25 04:49:28;;;;;;;45.35;28.90;;;;;;;;;;5003664;28;20031;-73
2022/04/25 04:51:54;;;;;;;49.88;29.98;;;;;;;;;;5002660;28;20029;-73
2022/04/25 04:54:20;;;;;;;46.38;29.83;;;;;;;;;;4996704;28;20034;-75
2022/04/25 04:56:45;;;;;;;47.60;30.30;;;;;;;;;;5007675;28;20052;-75
2022/04/25 04:59:11;;;;;;;45.47;29.33;;;;;;;;;;4996694;28;20049;-76
2022/04/25 05:01:38;;;;;;;52.78;31.10;;;;;;;;;;5002441;28;20377;-72
2022/04/25 05:04:04;;;;;;;45.75;28.70;;;;;;;;;;5003952;28;20040;-72
2022/04/25 05:06:30;;;;;;;42.42;29.17;;;;;;;;;;4993567;28;20034;-72
2022/04/25 05:08:56;;;;;;;48.83;31.45;;;;;;;;;;5006402;28;20033;-75
2022/04/25 05:11:22;;;;;;;51.67;30.63;;;;;;;;;;5003739;28;20152;-73
2022/04/25 05:13:48;;;;;;;48.13;30.25;;;;;;;;;;5008400;28;20053;-75
2022/04/25 05:16:15;;;;;;;48.55;29.85;;;;;;;;;;5010964;28;20286;-73
2022/04/25 05:18:41;;;;;;;57.80;32.20;;;;;;;;;;4994045;28;20030;-74
2022/04/25 05:21:07;;;;;;;58.33;32.55;;;;;;;;;;5006033;28;20025;-73
2022/04/25 05:23:33;;;;;;;59.60;33.25;;;;;;;;;;4999825;28;20034;-74
2022/04/25 05:25:59;;;;;;;62.63;35.47;;;;;;;;;;4997272;28;20034;-75
2022/04/25 05:28:25;;;;;;;61.13;34.17;;;;;;;;;;5007817;28;20457;-71
2022/04/25 05:30:51;;;;;;;58.25;34.92;;;;;;;;;;4998316;28;20081;-74
2022/04/25 05:33:18;;;;;;;69.00;35.03;;;;;;;;;;5008419;28;20029;-72
2022/04/25 05:35:44;;;;;;;66.55;37.55;;;;;;;;;;5005250;28;20436;-74
2022/04/25 05:38:11;;;;;;;64.13;36.55;;;;;;;;;;4998845;28;20069;-73
2022/04/25 05:40:38;;;;;;;69.43;37.60;;;;;;;;;;5011224;28;20034;-73
2022/04/25 05:43:05;;;;;;;67.65;37.85;;;;;;;;;;5002447;28;20114;-72
2022/04/25 05:45:31;;;;;;;66.78;38.22;;;;;;;;;;5007648;28;20026;-72
2022/04/25 05:47:57;;;;;;;57.45;37.17;;;;;;;;;;5014735;28;20041;-72
2022/04/25 05:53:09;;;;;;;60.83;36.42;;;;;;;;;;5010039;28;20606;-74
2022/04/25 05:55:35;;;;;;;64.15;39.03;;;;;;;;;;5014240;28;20026;-73
2022/04/25 05:58:02;;;;;;;52.38;36.10;;;;;;;;;;5013437;28;20384;-73
2022/04/25 06:00:28;;;;;;;71.22;38.10;;;;;;;;;;5005506;28;20037;-73
2022/04/25 06:02:57;;;;;;;51.88;34.53;;;;;;;;;;5010998;28;20037;-73
2022/04/25 06:05:24;;;;;;;52.45;34.97;;;;;;;;;;5004883;28;20518;-72
2022/04/25 06:07:50;;;;;;;52.72;35.15;;;;;;;;;;5003058;28;20562;-73
2022/04/25 06:10:20;;;;;;;45.10;31.58;;;;;;;;;;5007131;28;20444;-72
2022/04/25 06:12:48;;;;;;;41.58;29.85;;;;;;;;;;4997654;28;20374;-72
2022/04/25 06:15:16;;;;;;;45.72;31.58;;;;;;;;;;5009338;28;20040;-73
2022/04/25 06:17:41;;;;;;;44.20;30.00;;;;;;;;;;5001537;28;20100;-72
2022/04/25 06:20:08;;;;;;;34.70;25.58;;;;;;;;;;5002529;28;20373;-73
2022/04/25 06:22:34;;;;;;;34.42;24.17;;;;;;;;;;5009282;28;20022;-73
2022/04/25 06:25:00;;;;;;;32.28;23.52;;;;;;;;;;5011281;28;20068;-73
2022/04/25 06:27:26;;;;;;;30.83;24.30;;;;;;;;;;4997805;28;20578;-72
2022/04/25 06:29:52;;;;;;;34.20;23.70;;;;;;;;;;5004151;28;20444;-73
2022/04/25 06:32:19;;;;;;;25.33;21.98;;;;;;;;;;5010261;28;20479;-76
2022/04/25 06:34:45;;;;;;;31.67;23.70;;;;;;;;;;5019302;28;20022;-73
2022/04/25 06:37:11;;;;;;;47.85;31.40;;;;;;;;;;5014080;28;20033;-71
2022/04/25 06:39:37;;;;;;;28.20;22.33;;;;;;;;;;5008596;28;20030;-71
2022/04/25 06:42:05;;;;;;;55.50;35.92;;;;;;;;;;5010767;28;20026;-71
2022/04/25 06:44:31;;;;;;;47.97;29.88;;;;;;;;;;5006781;28;20461;-72
2022/04/25 06:46:58;;;;;;;48.40;31.50;;;;;;;;;;5031728;23;20029;-70
2022/04/25 06:49:23;;;;;;;55.58;33.05;;;;;;;;;;5030220;28;20188;-69
2022/04/25 06:51:51;;;;;;;38.67;24.35;;;;;;;;;;5032959;28;20450;-73
2022/04/25 06:54:17;;;;;;;67.95;40.10;;;;;;;;;;5019636;28;20018;-72
2022/04/25 06:56:43;;;;;;;48.88;31.65;;;;;;;;;;5017318;28;20026;-70
2022/04/25 06:59:09;;;;;;;35.75;27.77;;;;;;;;;;5028057;28;20216;-70
2022/04/25 07:01:36;;;;;;;47.85;31.30;;;;;;;;;;5019752;28;20022;-71
2022/04/25 07:04:02;;;;;;;49.38;30.02;;;;;;;;;;5014110;28;20132;-72
2022/04/25 07:06:28;;;;;;;54.10;34.58;;;;;;;;;;5009552;28;20037;-70
2022/04/25 07:08:54;;;;;;;59.78;37.85;;;;;;;;;;5015357;28;20028;-70
2022/04/25 07:11:20;;;;;;;51.55;33.05;;;;;;;;;;5027078;28;20018;-69
2022/04/25 07:13:46;;;;;;;44.53;27.92;;;;;;;;;;5021258;28;20026;-70
2022/04/25 07:16:12;;;;;;;35.95;27.20;;;;;;;;;;5019967;28;20033;-70
2022/04/25 07:18:39;;;;;;;43.10;29.58;;;;;;;;;;5027578;28;20057;-72
2022/04/25 07:29:19;;;;;;;44.92;31.25;;;;;;;;;;5010790;28;20068;-76
2022/04/25 07:31:45;;;;;;;46.55;30.92;;;;;;;;;;4993300;28;20026;-75
2022/04/25 07:34:12;;;;;;;35.47;26.88;;;;;;;;;;5011392;28;20025;-75
2022/04/25 07:36:37;;;;;;;36.72;26.45;;;;;;;;;;4993722;28;20463;-74
2022/04/25 07:39:04;;;;;;;33.30;24.65;;;;;;;;;;4992604;28;20092;-73
2022/04/25 07:41:30;;;;;;;31.02;21.83;;;;;;;;;;5011604;28;20036;-73
2022/04/25 07:43:56;;;;;;;27.33;21.20;;;;;;;;;;5012584;28;20035;-73
2022/04/25 07:46:26;;;;;;;31.05;21.58;;;;;;;;;;5012905;28;20022;-74
2022/04/25 07:48:53;;;;;;;27.17;21.38;;;;;;;;;;5011757;28;20096;-75
2022/04/25 07:51:19;;;;;;;31.77;20.08;;;;;;;;;;4994840;28;20411;-74
2022/04/25 07:53:45;;;;;;;30.98;23.45;;;;;;;;;;4994725;28;20480;-73
2022/04/25 07:56:11;;;;;;;26.83;20.58;;;;;;;;;;5012788;28;20133;-74
2022/04/25 07:58:37;;;;;;;38.60;25.60;;;;;;;;;;5011982;28;20109;-75
2022/04/25 08:01:04;;;;;;;25.85;19.58;;;;;;;;;;5012607;28;20406;-73
2022/04/25 08:03:30;;;;;;;29.88;20.52;;;;;;;;;;5007303;28;20038;-74
2022/04/25 08:05:56;;;;;;;23.92;19.02;;;;;;;;;;4993084;28;20109;-75
2022/04/25 08:08:22;;;;;;;30.23;21.33;;;;;;;;;;4974399;28;20023;-75
2022/04/25 08:10:48;;;;;;;34.65;21.65;;;;;;;;;;4992984;28;20396;-75
2022/04/25 08:18:43;;;;;;;24.60;18.45;;;;;;;;;;4991669;28;20036;-73
2022/04/25 08:21:09;;;;;;;27.08;18.33;;;;;;;;;;4992751;28;20026;-75
2022/04/25 08:23:35;;;;;;;23.67;18.83;;;;;;;;;;4975488;28;20456;-74
2022/04/25 08:26:01;;;;;;;21.92;17.08;;;;;;;;;;4975072;28;20507;-75
2022/04/25 08:28:27;;;;;;;22.23;17.30;;;;;;;;;;4991669;28;20073;-75
2022/04/25 08:30:53;;;;;;;24.23;16.60;;;;;;;;;;4992504;28;20014;-75
2022/04/25 08:33:20;;;;;;;22.25;17.40;;;;;;;;;;4974831;28;20022;-75
2022/04/25 08:35:46;;;;;;;18.15;15.43;;;;;;;;;;4974788;28;20128;-73
2022/04/25 08:38:12;;;;;;;26.77;19.77;;;;;;;;;;4991400;28;20054;-74
2022/04/25 08:40:39;;;;;;;29.67;20.77;;;;;;;;;;4974816;28;20400;-75
2022/04/25 08:43:06;;;;;;;25.67;19.00;;;;;;;;;;4974891;28;20023;-75
2022/04/25 08:45:33;;;;;;;28.13;19.70;;;;;;;;;;4992167;28;20033;-75
2022/04/25 08:47:59;;;;;;;23.10;16.95;;;;;;;;;;4991073;28;20150;-74
2022/04/25 08:50:26;;;;;;;25.25;16.58;;;;;;;;;;4992432;28;20027;-75
2022/04/25 08:52:53;;;;;;;21.40;14.80;;;;;;;;;;4992497;28;20026;-75
2022/04/25 08:55:19;;;;;;;29.92;20.30;;;;;;;;;;4974701;28;20038;-73
2022/04/25 08:57:46;;;;;;;21.08;15.63;;;;;;;;;;4991361;28;20030;-75
2022/04/25 09:00:12;;;;;;;21.83;14.75;;;;;;;;;;4992004;28;20026;-74
2022/04/25 09:02:39;;;;;;;19.85;15.10;;;;;;;;;;4992924;28;20041;-74
2022/04/25 09:05:06;;;;;;;17.85;14.30;;;;;;;;;;4995978;28;20105;-74
2022/04/25 09:07:32;;;;;;;20.50;15.52;;;;;;;;;;4995215;28;20026;-73
2022/04/25 09:09:58;;;;;;;24.35;16.13;;;;;;;;;;4996951;28;20461;-75
2022/04/25 09:12:24;;;;;;;18.98;15.73;;;;;;;;;;5011570;28;20479;-75
2022/04/25 09:14:50;;;;;;;23.95;16.48;;;;;;;;;;4993264;28;20030;-75
2022/04/25 09:17:16;;;;;;;23.02;15.48;;;;;;;;;;5005137;28;20029;-75
2022/04/25 09:19:42;;;;;;;17.50;13.52;;;;;;;;;;5015574;28;20095;-75
2022/04/25 09:22:09;;;;;;;22.63;14.13;;;;;;;;;;5015560;28;20022;-75
2022/04/25 09:24:36;;;;;;;19.65;13.63;;;;;;;;;;5016073;28;20109;-73
2022/04/25 09:27:08;;;;;;;22.23;15.85;;;;;;;;;;5015220;28;20025;-73
2022/04/25 09:29:35;;;;;;;21.60;15.18;;;;;;;;;;4997716;28;20099;-74
2022/04/25 09:32:01;;;;;;;17.67;14.10;;;;;;;;;;5015389;28;20476;-74
2022/04/25 09:37:13;;;;;;;22.63;15.90;;;;;;;;;;5014242;28;20045;-75
2022/04/25 09:39:40;;;;;;;21.40;15.35;;;;;;;;;;5015211;28;20061;-74
2022/04/25 09:42:06;;;;;;;19.92;14.50;;;;;;;;;;4997737;28;20026;-71
2022/04/25 09:44:52;;;;;;;22.02;15.50;;;;;;;;;;4997930;28;20579;-75
2022/04/25 09:47:32;;;;;;;21.65;16.67;;;;;;;;;;5014335;28;20117;-75
2022/04/25 09:50:18;;;;;;;30.58;18.23;;;;;;;;;;5014983;28;20383;-75
2022/04/25 09:53:10;;;;;;;25.70;18.38;;;;;;;;;;5015430;28;20069;-73
2022/04/25 09:55:38;;;;;;;21.08;15.57;;;;;;;;;;4993753;28;20044;-75
2022/04/25 09:58:17;;;;;;;24.75;17.55;;;;;;;;;;5013944;28;20050;-74
2022/04/25 10:00:43;;;;;;;22.15;14.48;;;;;;;;;;5014491;28;20072;-73
2022/04/25 10:03:10;;;;;;;20.08;14.90;;;;;;;;;;4997131;28;20033;-74
2022/04/25 10:05:46;;;;;;;28.45;16.60;;;;;;;;;;5014605;28;20033;-74
2022/04/25 10:08:14;;;;;;;18.00;14.00;;;;;;;;;;5013781;28;20080;-75
2022/04/25 10:10:50;;;;;;;23.17;13.57;;;;;;;;;;4996888;28;20391;-75
2022/04/25 10:13:17;;;;;;;29.08;17.23;;;;;;;;;;5014846;28;20464;-74
2022/04/25 10:15:44;;;;;;;20.60;15.48;;;;;;;;;;5013420;28;20065;-74
2022/04/25 10:18:10;;;;;;;29.80;15.20;;;;;;;;;;5013472;28;20108;-75
2022/04/25 10:20:37;;;;;;;21.80;15.45;;;;;;;;;;5014524;28;20030;-75
2022/04/25 10:23:04;;;;;;;19.98;14.02;;;;;;;;;;5014380;28;20026;-74
2022/04/25 10:25:31;;;;;;;21.02;14.43;;;;;;;;;;5014074;28;20079;-74
2022/04/25 10:27:59;;;;;;;18.83;13.38;;;;;;;;;;5013476;28;20490;-75
2022/04/25 10:30:29;;;;;;;23.75;14.10;;;;;;;;;;5014381;28;20330;-75
2022/04/25 10:33:12;;;;;;;16.05;13.10;;;;;;;;;;5011173;28;20026;-74
2022/04/25 10:35:39;;;;;;;23.48;14.68;;;;;;;;;;5013743;28;20026;-74
2022/04/25 10:38:47;;;;;;;18.83;14.15;;;;;;;;;;4995370;28;20407;-75
2022/04/25 10:44:10;;;;;;;21.23;14.40;;;;;;;;;;5014611;28;20080;-74
2022/04/25 10:46:55;;;;;;;17.67;12.65;;;;;;;;;;4996006;28;20033;-75
2022/04/25 10:49:31;;;;;;;23.30;14.30;;;;;;;;;;5012812;28;20396;-75
2022/04/25 10:51:57;;;;;;;20.55;16.17;;;;;;;;;;5013592;28;20032;-75
2022/04/25 10:54:27;;;;;;;19.25;14.38;;;;;;;;;;5013713;28;20432;-75
2022/04/25 10:57:08;;;;;;;15.90;13.00;;;;;;;;;;5013505;28;20499;-75
2022/04/25 10:59:35;;;;;;;19.75;12.30;;;;;;;;;;4995377;28;20037;-75
2022/04/25 11:02:00;;;;;;;18.73;12.93;;;;;;;;;;4995809;28;20152;-74
2022/04/25 11:04:27;;;;;;;15.65;13.57;;;;;;;;;;5013607;28;20520;-75
2022/04/25 11:07:11;;;;;;;13.40;11.25;;;;;;;;;;5013227;28;20411;-75
2022/04/25 11:09:40;;;;;;;18.98;10.32;;;;;;;;;;5013257;28;20029;-75
2022/04/25 11:12:07;;;;;;;16.05;11.10;;;;;;;;;;4996017;28;20109;-76
2022/04/25 11:14:33;;;;;;;14.88;11.07;;;;;;;;;;5013499;28;20060;-75
2022/04/25 11:17:06;;;;;;;16.38;9.85;;;;;;;;;;4995161;28;20072;-73
2022/04/25 11:19:45;;;;;;;10.38;8.48;;;;;;;;;;5013153;28;20464;-75
2022/04/25 11:22:31;;;;;;;15.45;9.60;;;;;;;;;;5013447;28;20030;-75
2022/04/25 11:24:57;;;;;;;14.55;9.95;;;;;;;;;;5013354;28;20053;-75
2022/04/25 11:27:23;;;;;;;12.98;9.20;;;;;;;;;;4994650;28;20233;-77
2022/04/25 11:30:12;;;;;;;11.48;8.27;;;;;;;;;;5013346;28;20026;-77
2022/04/25 11:32:38;;;;;;;10.60;7.68;;;;;;;;;;4995374;28;20025;-76
2022/04/25 11:35:04;;;;;;;16.58;9.13;;;;;;;;;;5012975;28;20025;-76
2022/04/25 11:37:31;;;;;;;12.25;8.27;;;;;;;;;;4994299;28;20511;-75
2022/04/25 11:39:58;;;;;;;12.43;7.25;;;;;;;;;;5012869;28;20029;-77
2022/04/25 11:42:26;;;;;;;13.13;6.72;;;;;;;;;;5012581;28;20310;-76
2022/04/25 11:44:52;;;;;;;8.40;6.65;;;;;;;;;;5012562;28;20033;-76
2022/04/25 11:47:21;;;;;;;9.60;7.03;;;;;;;;;;4994192;28;20034;-76
2022/04/25 11:49:47;;;;;;;10.52;6.18;;;;;;;;;;5012962;28;20045;-76
2022/04/25 11:52:17;;;;;;;10.48;8.13;;;;;;;;;;5013990;28;20022;-76
2022/04/25 11:54:43;;;;;;;14.05;6.65;;;;;;;;;;5014682;28;20488;-75
2022/04/25 11:57:09;;;;;;;9.13;6.45;;;;;;;;;;5013969;28;20483;-76
2022/04/25 11:59:35;;;;;;;10.02;7.45;;;;;;;;;;4997341;28;20041;-77
2022/04/25 12:02:02;;;;;;;9.35;6.57;;;;;;;;;;5013023;28;20104;-75
2022/04/25 12:04:35;;;;;;;12.02;7.35;;;;;;;;;;5013287;28;20499;-77
2022/04/25 12:07:03;;;;;;;10.30;6.07;;;;;;;;;;5012460;28;20034;-75
2022/04/25 12:18:19;;;;;;;11.23;7.55;;;;;;;;;;4978075;28;20029;-75
2022/04/25 12:20:49;;;;;;;15.93;8.82;;;;;;;;;;4994634;28;20060;-76
2022/04/25 12:23:25;;;;;;;10.05;7.13;;;;;;;;;;5012527;28;20114;-75
2022/04/25 12:25:51;;;;;;;12.63;7.22;;;;;;;;;;5012028;28;20453;-76
2022/04/25 12:28:19;;;;;;;12.73;6.18;;;;;;;;;;5011206;28;20105;-76
2022/04/25 12:31:11;;;;;;;9.40;6.82;;;;;;;;;;5011592;28;20029;-74
2022/04/25 12:33:37;;;;;;;12.57;7.85;;;;;;;;;;5006573;28;20034;-77
2022/04/25 12:36:29;;;;;;;9.52;6.40;;;;;;;;;;4995605;28;20114;-75
2022/04/25 12:39:01;;;;;;;12.95;7.18;;;;;;;;;;4970562;28;20039;-76
2022/04/25 12:41:30;;;;;;;14.85;7.38;;;;;;;;;;4992357;28;20117;-76
2022/04/25 12:43:56;;;;;;;8.25;6.53;;;;;;;;;;4992174;28;20026;-75
2022/04/25 12:46:41;;;;;;;8.38;6.45;;;;;;;;;;4992129;28;20026;-76
2022/04/25 12:49:08;;;;;;;8.75;6.50;;;;;;;;;;4992780;28;20034;-76
2022/04/25 12:51:36;;;;;;;10.73;7.43;;;;;;;;;;4992632;28;20392;-75
2022/04/25 12:54:03;;;;;;;17.27;7.30;;;;;;;;;;4992707;28;20389;-76
2022/04/25 12:56:30;;;;;;;13.13;8.82;;;;;;;;;;4993492;28;20076;-76
2022/04/25 12:58:56;;;;;;;9.70;6.90;;;;;;;;;;4974516;28;20037;-76
2022/04/25 13:01:27;;;;;;;13.50;8.07;;;;;;;;;;4992760;28;20026;-75
2022/04/25 13:04:12;;;;;;;9.52;7.90;;;;;;;;;;4992262;28;20034;-77
2022/04/25 13:06:39;;;;;;;9.32;7.15;;;;;;;;;;4992224;28;20033;-76
2022/04/25 13:09:05;;;;;;;10.90;8.30;;;;;;;;;;4991937;28;20022;-76
2022/04/25 13:11:32;;;;;;;15.50;8.70;;;;;;;;;;4992602;28;20022;-74
2022/04/25 13:13:58;;;;;;;11.90;8.20;;;;;;;;;;4975077;28;20556;-75
2022/04/25 13:16:24;;;;;;;13.63;8.45;;;;;;;;;;4999766;28;20108;-74
2022/04/25 13:18:50;;;;;;;12.50;8.15;;;;;;;;;;4991992;28;20396;-76
2022/04/25 13:21:17;;;;;;;14.65;7.75;;;;;;;;;;4994315;28;20034;-76
2022/04/25 13:23:43;;;;;;;10.77;7.72;;;;;;;;;;4994416;28;20049;-77
2022/04/25 13:26:09;;;;;;;11.85;8.55;;;;;;;;;;4994904;28;20495;-76
2022/04/25 13:28:35;;;;;;;10.30;7.32;;;;;;;;;;4994203;28;20026;-76
2022/04/25 13:31:02;;;;;;;10.98;6.68;;;;;;;;;;5012447;28;20726;-76
2022/04/25 13:33:28;;;;;;;10.70;7.63;;;;;;;;;;4994654;28;20058;-77
2022/04/25 13:35:54;;;;;;;10.50;7.65;;;;;;;;;;5012531;28;20511;-77
2022/04/25 13:38:20;;;;;;;10.57;7.82;;;;;;;;;;5011158;28;20450;-78
2022/04/25 13:40:47;;;;;;;10.18;7.43;;;;;;;;;;5011777;28;20104;-77
2022/04/25 13:43:14;;;;;;;10.40;7.93;;;;;;;;;;5012449;28;20026;-76
2022/04/25 13:45:40;;;;;;;10.80;7.53;;;;;;;;;;5012112;28;20483;-77
2022/04/25 13:48:07;;;;;;;9.88;7.38;;;;;;;;;;5011077;28;20102;-77
2022/04/25 13:50:35;;;;;;;10.68;7.68;;;;;;;;;;5014075;28;20487;-75
2022/04/25 13:53:01;;;;;;;9.95;7.85;;;;;;;;;;5015486;28;20041;-77
2022/04/25 13:55:29;;;;;;;13.73;8.43;;;;;;;;;;5015725;28;20057;-76
2022/04/25 13:57:56;;;;;;;9.30;7.65;;;;;;;;;;5015152;28;20022;-77
2022/04/25 14:00:22;;;;;;;10.40;8.02;;;;;;;;;;5015746;28;20026;-77
2022/04/25 14:03:06;;;;;;;9.98;7.95;;;;;;;;;;4998620;28;20026;-77
2022/04/25 14:05:50;;;;;;;9.73;7.97;;;;;;;;;;5015640;28;20101;-77
2022/04/25 14:08:16;;;;;;;12.77;8.68;;;;;;;;;;5014666;28;20558;-77
2022/04/25 14:10:44;;;;;;;10.90;8.45;;;;;;;;;;5014872;28;20026;-78
2022/04/25 14:13:11;;;;;;;12.80;8.70;;;;;;;;;;5015528;28;20026;-74
2022/04/25 14:15:37;;;;;;;13.48;8.32;;;;;;;;;;5015044;28;20097;-75
2022/04/25 14:18:04;;;;;;;14.68;9.20;;;;;;;;;;5014305;28;20096;-77
2022/04/25 14:20:30;;;;;;;15.63;9.93;;;;;;;;;;4997809;28;20030;-77
2022/04/25 14:22:57;;;;;;;12.32;8.50;;;;;;;;;;5015272;28;20030;-76
2022/04/25 14:25:23;;;;;;;9.98;8.23;;;;;;;;;;5014948;28;20032;-76
2022/04/25 14:27:50;;;;;;;11.40;8.75;;;;;;;;;;4996243;28;20021;-74
2022/04/25 14:30:16;;;;;;;10.80;8.45;;;;;;;;;;5014842;28;20029;-75
2022/04/25 14:32:42;;;;;;;11.25;8.70;;;;;;;;;;5014700;28;20022;-74
2022/04/25 14:35:08;;;;;;;13.98;9.52;;;;;;;;;;4996826;28;20435;-76
2022/04/25 14:37:34;;;;;;;10.80;8.23;;;;;;;;;;5009108;28;20057;-74
2022/04/25 14:40:00;;;;;;;12.40;8.48;;;;;;;;;;5035716;28;20030;-73
2022/04/25 14:42:26;;;;;;;10.85;8.63;;;;;;;;;;5033633;28;20053;-77
2022/04/25 14:44:52;;;;;;;10.65;8.48;;;;;;;;;;5032843;28;20049;-74
2022/04/25 14:47:18;;;;;;;14.85;10.82;;;;;;;;;;5032758;28;20037;-75
2022/04/25 14:55:13;;;;;;;10.43;8.65;;;;;;;;;;5033243;28;20080;-72
2022/04/25 14:57:40;;;;;;;12.48;9.75;;;;;;;;;;5032647;28;20025;-76
2022/04/25 15:00:06;;;;;;;10.15;7.70;;;;;;;;;;5033092;28;20071;-74
2022/04/25 15:02:32;;;;;;;12.57;7.38;;;;;;;;;;5033623;28;20096;-72
2022/04/25 15:04:59;;;;;;;12.52;8.55;;;;;;;;;;5034252;28;20191;-73
2022/04/25 15:07:24;;;;;;;9.35;7.88;;;;;;;;;;5032712;28;20140;-75